Time;durP1;ratioP1;P1;durP2;ratioP2;P2;SDS_P1;SDS_P2;PMS_P1;PMS_P2;Temp;Humidity;BMP_temperature;BMP_pressure;BME280_temperature;BME280_humidity;BME280_pressure;Samples;Min_cycle;Max_cycle;Signal;HPM_P1;HPM_P2
2022/01/23 00:00:35;;;;;;;39.83;16.02;;;;;;;-4.16;100.00;99268.16;1719202;82;21060;-67
2022/01/23 00:03:06;;;;;;;39.15;16.23;;;;;;;-4.18;100.00;99271.61;1720664;82;21523;-67
2022/01/23 00:05:39;;;;;;;40.25;15.15;;;;;;;-4.19;100.00;99267.80;1722706;82;21095;-67
2022/01/23 00:08:10;;;;;;;36.35;16.57;;;;;;;-4.18;100.00;99264.88;1722939;82;21016;-68
2022/01/23 00:10:37;;;;;;;40.25;15.50;;;;;;;-4.13;100.00;99271.45;1722391;82;21518;-68
2022/01/23 00:13:11;;;;;;;32.60;13.62;;;;;;;-4.11;100.00;99271.52;1721189;82;21041;-67
2022/01/23 00:18:20;;;;;;;26.75;11.93;;;;;;;-4.04;100.00;99274.94;1720373;82;21537;-67
2022/01/23 00:20:48;;;;;;;30.08;12.82;;;;;;;-4.03;100.00;99275.77;1719349;82;21131;-67
2022/01/23 00:23:33;;;;;;;27.70;13.78;;;;;;;-4.03;100.00;99271.18;1722080;82;21016;-68
2022/01/23 00:31:32;;;;;;;30.55;12.73;;;;;;;-3.99;100.00;99280.17;1721482;82;21571;-68
2022/01/23 00:34:01;;;;;;;24.95;12.68;;;;;;;-4.05;100.00;99285.94;1720611;82;21520;-67
2022/01/23 00:36:28;;;;;;;30.50;13.28;;;;;;;-4.10;100.00;99286.63;1719692;82;21041;-67
2022/01/23 00:38:57;;;;;;;28.90;13.43;;;;;;;-4.16;100.00;99288.35;1719373;82;21005;-67
2022/01/23 00:41:26;;;;;;;31.93;14.75;;;;;;;-4.20;100.00;99280.45;1720331;82;21152;-66
2022/01/23 00:43:54;;;;;;;34.80;15.60;;;;;;;-4.20;100.00;99280.97;1718175;82;21071;-67
2022/01/23 00:46:30;;;;;;;31.17;13.68;;;;;;;-4.20;100.00;99285.01;1721151;82;21033;-68
2022/01/23 00:49:41;;;;;;;28.20;14.33;;;;;;;-4.23;100.00;99282.23;1720980;82;21033;-68
2022/01/23 00:51:28;;;;;;;30.77;13.50;;;;;;;-4.23;100.00;99288.96;1710392;82;21053;-68
2022/01/23 00:53:57;;;;;;;27.48;13.32;;;;;;;-4.28;100.00;99292.86;1656320;85;21813;-68
2022/01/23 00:56:27;;;;;;;33.38;13.78;;;;;;;-4.35;100.00;99284.07;1658007;85;21494;-67
2022/01/23 00:58:54;;;;;;;30.55;13.25;;;;;;;-4.42;100.00;99279.58;1682812;84;21642;-66
2022/01/23 01:01:22;;;;;;;28.20;12.18;;;;;;;-4.49;100.00;99284.75;1659243;85;21004;-68
2022/01/23 01:03:49;;;;;;;35.70;13.70;;;;;;;-4.58;100.00;99275.66;1655810;85;21003;-69
2022/01/23 01:06:17;;;;;;;33.13;13.48;;;;;;;-4.60;100.00;99274.22;1721998;82;21560;-67
2022/01/23 01:08:51;;;;;;;22.77;11.40;;;;;;;-4.58;100.00;99275.66;1658565;85;21048;-66
2022/01/23 01:16:54;;;;;;;28.90;13.43;;;;;;;-4.41;100.00;99278.55;1681755;84;21036;-68
2022/01/23 01:30:30;;;;;;;28.75;14.65;;;;;;;-4.26;100.00;99275.96;1573427;87;21139;-67
2022/01/23 01:35:41;;;;;;;28.62;12.18;;;;;;;-4.13;100.00;99279.02;1651000;85;21008;-67
2022/01/23 01:38:06;;;;;;;29.72;13.55;;;;;;;-4.20;100.00;99274.24;1669565;85;21509;-68
2022/01/23 01:40:32;;;;;;;39.85;17.17;;;;;;;-4.26;100.00;99271.92;1657574;85;20988;-68
2022/01/23 01:43:00;;;;;;;40.95;16.12;;;;;;;-4.26;100.00;99284.04;1659485;85;21051;-67
2022/01/23 01:45:28;;;;;;;33.83;14.90;;;;;;;-4.24;100.00;99280.60;1642794;85;22153;-67
2022/01/23 01:48:00;;;;;;;41.83;17.27;;;;;;;-4.21;100.00;99288.22;1656563;85;21028;-67
2022/01/23 01:50:29;;;;;;;47.15;19.30;;;;;;;-4.17;100.00;99293.45;1673949;85;21076;-67
2022/01/23 01:53:01;;;;;;;44.50;18.37;;;;;;;-4.12;100.00;99296.80;1685724;84;21083;-67
2022/01/23 01:55:38;;;;;;;45.58;20.40;;;;;;;-4.08;100.00;99298.52;1721286;82;20997;-66
2022/01/23 01:58:04;;;;;;;41.45;17.42;;;;;;;-4.06;100.00;99304.50;1721441;82;21110;-67
2022/01/23 02:00:57;;;;;;;41.98;17.73;;;;;;;-4.06;100.00;99301.80;1721176;82;21544;-68
2022/01/23 02:08:56;;;;;;;36.33;16.50;;;;;;;-3.93;100.00;99305.66;1719326;82;21068;-66
2022/01/23 02:11:50;;;;;;;34.23;16.35;;;;;;;-3.89;100.00;99306.02;1722364;82;21030;-66
2022/01/23 02:14:11;;;;;;;42.13;15.58;;;;;;;-3.88;100.00;99306.82;1718777;82;21037;-67
2022/01/23 02:54:55;;;;;;;39.67;17.30;;;;;;;-4.05;100.00;99345.99;1682027;84;21063;-67
2022/01/23 02:57:20;;;;;;;41.25;17.50;;;;;;;-4.05;100.00;99354.58;1676935;84;21020;-67
2022/01/23 02:59:43;;;;;;;37.53;16.50;;;;;;;-4.07;100.00;99353.98;1678396;84;21119;-67
2022/01/23 03:02:37;;;;;;;37.90;15.53;;;;;;;-4.06;100.00;99353.75;1675483;84;21027;-67
2022/01/23 03:05:02;;;;;;;37.78;15.35;;;;;;;-4.09;100.00;99359.59;1677254;84;22035;-66
2022/01/23 03:10:17;;;;;;;33.20;14.78;;;;;;;-4.06;100.00;99359.69;1664754;84;21548;-67
2022/01/23 03:15:32;;;;;;;32.90;13.98;;;;;;;-4.04;100.00;99362.43;1682593;84;21532;-67
2022/01/23 03:29:00;;;;;;;38.70;15.18;;;;;;;-4.06;100.00;99373.94;1680854;84;21056;-67
2022/01/23 03:31:24;;;;;;;42.83;16.23;;;;;;;-4.09;100.00;99378.95;1681188;84;21164;-67
2022/01/23 03:33:49;;;;;;;35.03;15.90;;;;;;;-4.16;100.00;99381.22;1670518;85;21595;-66
2022/01/23 03:36:16;;;;;;;41.65;15.95;;;;;;;-4.21;100.00;99379.72;1698594;84;21035;-66
2022/01/23 03:38:43;;;;;;;40.78;16.82;;;;;;;-4.21;100.00;99389.14;1684838;84;21062;-67
2022/01/23 03:41:10;;;;;;;46.77;17.55;;;;;;;-4.25;100.00;99389.31;1696435;84;20995;-68
2022/01/23 03:43:40;;;;;;;40.20;16.42;;;;;;;-4.30;100.00;99396.69;1688366;84;21117;-68
2022/01/23 03:46:22;;;;;;;44.93;17.02;;;;;;;-4.30;100.00;99403.96;1668637;85;21471;-68
2022/01/23 03:51:13;;;;;;;40.58;17.30;;;;;;;-4.17;100.00;99409.19;1659475;84;21111;-68
2022/01/23 03:53:44;;;;;;;32.20;15.00;;;;;;;-4.14;100.00;99408.45;1695166;83;21106;-68
2022/01/23 03:56:14;;;;;;;27.50;13.20;;;;;;;-4.18;100.00;99411.56;1696258;83;21101;-69
2022/01/23 03:58:44;;;;;;;23.80;11.78;;;;;;;-4.17;100.00;99417.78;1688087;84;21055;-68
2022/01/23 04:01:17;;;;;;;21.45;11.12;;;;;;;-4.21;100.00;99419.27;1667002;85;21122;-67
2022/01/23 04:03:47;;;;;;;22.02;11.35;;;;;;;-4.21;100.00;99429.52;1664481;84;21103;-67
2022/01/23 04:06:14;;;;;;;23.65;11.83;;;;;;;-4.21;100.00;99428.17;1695496;83;20996;-67
2022/01/23 04:08:48;;;;;;;24.87;11.12;;;;;;;-4.24;100.00;99432.66;1688312;84;21083;-65
2022/01/23 04:11:17;;;;;;;21.52;9.73;;;;;;;-4.23;100.00;99434.84;1646669;85;21055;-68
2022/01/23 04:13:57;;;;;;;18.05;9.05;;;;;;;-4.20;100.00;99433.03;1666810;85;21023;-67
2022/01/23 04:19:13;;;;;;;20.50;10.38;;;;;;;-4.12;100.00;99452.09;1680844;85;21100;-65
2022/01/23 04:46:01;;;;;;;14.65;7.53;;;;;;;-4.21;100.00;99505.39;1722114;82;21533;-65
2022/01/23 04:59:39;;;;;;;23.07;9.70;;;;;;;-4.46;100.00;99529.13;1719408;82;21541;-66
2022/01/23 05:02:48;;;;;;;19.50;9.55;;;;;;;-4.62;100.00;99529.97;1718508;82;21533;-67
2022/01/23 05:05:01;;;;;;;14.43;8.13;;;;;;;-4.80;100.00;99546.36;1721872;82;21001;-67
2022/01/23 05:07:40;;;;;;;21.17;10.90;;;;;;;-4.87;100.00;99555.48;1721937;82;21060;-67
2022/01/23 05:10:08;;;;;;;24.47;10.25;;;;;;;-4.96;100.00;99559.78;1720279;82;21549;-67
2022/01/23 05:12:46;;;;;;;17.55;8.48;;;;;;;-4.96;100.00;99562.47;1669936;85;21533;-67
2022/01/23 05:15:14;;;;;;;19.23;10.30;;;;;;;-4.90;100.00;99566.17;1706248;82;21111;-68
2022/01/23 05:17:42;;;;;;;18.32;10.15;;;;;;;-4.95;100.00;99572.72;1698851;82;21517;-67
2022/01/23 05:20:12;;;;;;;23.50;11.40;;;;;;;-5.04;100.00;99574.83;1720972;82;21072;-67
2022/01/23 05:22:48;;;;;;;19.62;11.05;;;;;;;-5.13;100.00;99578.28;1656738;85;21082;-67
2022/01/23 05:25:18;;;;;;;21.77;11.78;;;;;;;-5.21;100.00;99581.21;1679855;84;21567;-67
2022/01/23 05:27:41;;;;;;;19.05;10.40;;;;;;;-5.33;100.00;99579.20;1678977;84;21121;-67
2022/01/23 05:30:11;;;;;;;22.90;11.93;;;;;;;-5.38;100.00;99583.05;1681725;84;21020;-68
2022/01/23 05:32:41;;;;;;;23.30;11.03;;;;;;;-5.41;100.00;99587.52;1657017;85;21020;-68
2022/01/23 05:35:09;;;;;;;27.37;13.03;;;;;;;-5.43;100.00;99589.06;1661028;85;21596;-66
2022/01/23 05:37:37;;;;;;;25.23;12.68;;;;;;;-5.43;100.00;99590.41;1657434;85;21086;-68
2022/01/23 05:40:11;;;;;;;25.20;12.45;;;;;;;-5.50;100.00;99605.20;1657292;85;21048;-69
2022/01/23 05:42:41;;;;;;;28.27;13.70;;;;;;;-5.58;100.00;99612.67;1675037;85;21560;-68
2022/01/23 05:45:08;;;;;;;25.75;12.68;;;;;;;-5.64;100.00;99616.50;1660672;85;21043;-67
2022/01/23 05:47:58;;;;;;;24.47;12.35;;;;;;;-5.82;100.00;99613.65;1638372;86;22231;-66
2022/01/23 05:50:39;;;;;;;28.12;12.95;;;;;;;-5.95;100.00;99614.50;1660225;82;21093;-67
2022/01/23 05:53:23;;;;;;;31.87;15.10;;;;;;;-5.93;100.00;99620.47;1719239;82;21122;-66
2022/01/23 05:56:05;;;;;;;36.08;16.85;;;;;;;-5.91;100.00;99633.17;1710775;82;21044;-66
2022/01/23 05:58:35;;;;;;;32.45;14.45;;;;;;;-5.92;100.00;99633.67;1717654;82;21072;-68
2022/01/23 06:01:02;;;;;;;22.40;11.78;;;;;;;-5.93;100.00;99642.77;1722381;82;21096;-66
2022/01/23 06:03:30;;;;;;;24.05;12.20;;;;;;;-5.93;100.00;99652.67;1720163;82;21020;-65
2022/01/23 06:06:07;;;;;;;26.70;12.68;;;;;;;-5.93;100.00;99652.67;1721940;82;21245;-67
2022/01/23 06:08:35;;;;;;;20.17;11.20;;;;;;;-5.98;100.00;99653.30;1721058;82;21090;-68
2022/01/23 06:11:02;;;;;;;27.22;12.23;;;;;;;-5.94;100.00;99655.06;1718868;82;21076;-68
2022/01/23 06:13:32;;;;;;;22.95;12.28;;;;;;;-5.98;100.00;99655.98;1720704;82;21506;-68
2022/01/23 06:16:01;;;;;;;26.95;12.82;;;;;;;-5.92;100.00;99657.03;1722053;82;21056;-67
2022/01/23 06:18:35;;;;;;;27.05;13.25;;;;;;;-5.86;100.00;99663.73;1658131;85;21131;-68
2022/01/23 06:21:20;;;;;;;26.00;13.50;;;;;;;-5.82;100.00;99668.69;1659547;85;21121;-67
2022/01/23 06:24:07;;;;;;;34.85;15.60;;;;;;;-5.78;100.00;99687.35;1682840;84;21091;-66
2022/01/23 06:26:46;;;;;;;36.48;17.30;;;;;;;-5.80;100.00;99686.76;1680376;84;21516;-67
2022/01/23 06:29:17;;;;;;;30.02;15.35;;;;;;;-5.81;100.00;99684.58;1681984;84;21524;-68
2022/01/23 06:31:46;;;;;;;26.12;14.18;;;;;;;-5.74;100.00;99705.55;1679502;84;21142;-69
2022/01/23 06:34:14;;;;;;;27.70;13.85;;;;;;;-5.71;100.00;99702.14;1680945;84;21075;-69
2022/01/23 06:36:44;;;;;;;30.05;14.87;;;;;;;-5.78;100.00;99702.13;1656876;85;21087;-69
2022/01/23 06:39:13;;;;;;;32.03;15.72;;;;;;;-5.84;100.00;99709.67;1673946;85;21076;-68
2022/01/23 06:41:40;;;;;;;25.35;13.38;;;;;;;-5.88;100.00;99715.45;1684095;84;21035;-68
2022/01/23 06:44:11;;;;;;;29.98;14.38;;;;;;;-5.86;100.00;99718.77;1682583;84;21503;-67
2022/01/23 06:46:43;;;;;;;31.93;15.03;;;;;;;-5.88;100.00;99714.11;1656962;85;21094;-67
2022/01/23 06:49:10;;;;;;;29.40;13.08;;;;;;;-5.87;100.00;99722.47;1673529;85;21085;-71
2022/01/23 06:51:41;;;;;;;26.48;13.35;;;;;;;-5.86;100.00;99720.11;1665020;84;21089;-70
2022/01/23 06:54:11;;;;;;;23.00;13.72;;;;;;;-5.81;100.00;99719.99;1722014;82;21045;-67
2022/01/23 06:56:43;;;;;;;26.05;13.88;;;;;;;-5.78;100.00;99729.80;1721934;82;21767;-68
2022/01/23 06:59:13;;;;;;;32.35;12.93;;;;;;;-5.78;100.00;99739.20;1722015;82;21449;-68
2022/01/23 07:01:42;;;;;;;29.57;12.53;;;;;;;-5.80;100.00;99739.11;1721555;82;21063;-68
2022/01/23 07:04:17;;;;;;;32.60;15.18;;;;;;;-5.77;100.00;99752.12;1719452;82;21080;-68
2022/01/23 07:06:49;;;;;;;28.80;13.93;;;;;;;-5.73;100.00;99760.05;1704781;82;21053;-68
2022/01/23 07:09:19;;;;;;;27.62;13.53;;;;;;;-5.76;100.00;99766.67;1717679;82;21160;-68
2022/01/23 07:11:55;;;;;;;25.62;12.73;;;;;;;-5.74;100.00;99767.30;1722396;82;21088;-72
2022/01/23 07:14:32;;;;;;;30.40;14.38;;;;;;;-5.58;100.00;99773.81;1690972;82;21596;-68
2022/01/23 07:17:02;;;;;;;34.90;14.28;;;;;;;-5.52;100.00;99774.31;1722368;82;21048;-66
2022/01/23 07:19:36;;;;;;;24.77;13.08;;;;;;;-5.53;100.00;99780.23;1710866;82;21033;-69
2022/01/23 07:22:04;;;;;;;30.50;14.05;;;;;;;-5.54;100.00;99783.09;1719493;82;21113;-69
2022/01/23 07:24:31;;;;;;;29.05;14.07;;;;;;;-5.44;100.00;99781.36;1700158;82;20974;-69
2022/01/23 07:27:06;;;;;;;31.82;14.87;;;;;;;-5.27;100.00;99788.48;1719046;82;21600;-68
2022/01/23 07:29:37;;;;;;;28.42;15.08;;;;;;;-5.18;100.00;99797.95;1719449;82;21053;-70
2022/01/23 07:32:09;;;;;;;37.00;16.07;;;;;;;-5.17;100.00;99801.48;1720489;82;21053;-67
2022/01/23 07:34:40;;;;;;;41.18;19.80;;;;;;;-5.25;100.00;99809.22;1722019;82;21137;-71
2022/01/23 07:37:22;;;;;;;45.03;19.07;;;;;;;-5.22;100.00;99812.83;1721221;82;21069;-69
2022/01/23 07:39:54;;;;;;;51.23;20.65;;;;;;;-5.17;100.00;99817.06;1720578;82;21593;-68
2022/01/23 07:42:31;;;;;;;62.33;22.13;;;;;;;-5.13;100.00;99825.03;1694065;82;21018;-68
2022/01/23 07:45:04;;;;;;;68.40;22.77;;;;;;;-5.11;100.00;99819.95;1722312;82;21032;-69
2022/01/23 07:47:49;;;;;;;47.25;19.42;;;;;;;-5.04;100.00;99823.47;1716277;82;22178;-67
2022/01/23 07:50:17;;;;;;;40.95;18.77;;;;;;;-4.85;100.00;99824.98;1713578;82;21525;-67
2022/01/23 07:53:04;;;;;;;39.05;17.40;;;;;;;-4.72;100.00;99826.30;1711800;82;21025;-68
2022/01/23 07:55:46;;;;;;;43.78;20.17;;;;;;;-4.71;100.00;99839.23;1713384;82;21504;-68
2022/01/23 07:58:24;;;;;;;42.10;18.67;;;;;;;-4.60;100.00;99839.92;1653812;86;21123;-68
2022/01/23 08:01:12;;;;;;;37.15;16.67;;;;;;;-4.54;100.00;99844.45;1722218;82;22038;-69
2022/01/23 08:03:47;;;;;;;38.60;17.65;;;;;;;-4.50;100.00;99846.20;1688969;82;21557;-68
2022/01/23 08:06:17;;;;;;;37.55;18.85;;;;;;;-4.56;100.00;99854.62;1719865;82;21522;-68
2022/01/23 08:08:44;;;;;;;37.55;17.00;;;;;;;-4.62;100.00;99854.09;1655993;85;21382;-70
2022/01/23 08:11:13;;;;;;;34.10;16.77;;;;;;;-4.52;100.00;99863.90;1682214;84;21132;-67
2022/01/23 08:13:39;;;;;;;34.92;17.02;;;;;;;-4.48;100.00;99864.30;1680426;84;21502;-68
2022/01/23 08:16:05;;;;;;;33.75;17.42;;;;;;;-4.38;100.00;99873.27;1683920;84;21091;-68
2022/01/23 08:18:33;;;;;;;33.10;15.90;;;;;;;-4.31;100.00;99871.91;1680979;84;21087;-68
2022/01/23 08:21:00;;;;;;;38.00;16.37;;;;;;;-4.26;100.00;99877.48;1682753;84;21128;-68
2022/01/23 08:23:28;;;;;;;37.28;18.82;;;;;;;-4.14;100.00;99879.52;1641458;85;21059;-67
2022/01/23 08:25:58;;;;;;;34.10;16.55;;;;;;;-4.07;100.00;99889.72;1683359;83;21157;-69
2022/01/23 08:28:27;;;;;;;32.83;15.45;;;;;;;-4.10;100.00;99896.89;1656857;84;21069;-69
2022/01/23 08:30:54;;;;;;;35.35;17.45;;;;;;;-4.14;100.00;99907.80;1652449;84;21081;-68
2022/01/23 08:33:24;;;;;;;32.80;15.38;;;;;;;-4.06;100.00;99918.32;1679833;83;21040;-70
2022/01/23 08:35:53;;;;;;;32.03;16.30;;;;;;;-3.99;100.00;99925.02;1681540;83;21059;-69
2022/01/23 08:38:20;;;;;;;31.73;16.35;;;;;;;-4.11;100.00;99932.94;1682260;84;21256;-70
2022/01/23 08:40:58;;;;;;;26.60;13.78;;;;;;;-4.07;100.00;99943.06;1666794;85;21012;-69
2022/01/23 08:43:19;;;;;;;33.95;16.27;;;;;;;-3.97;100.00;99946.64;1680815;84;21052;-70
2022/01/23 08:45:47;;;;;;;26.05;13.68;;;;;;;-3.97;100.00;99949.84;1682688;84;21051;-68
2022/01/23 08:48:20;;;;;;;27.85;15.15;;;;;;;-3.87;100.00;99958.84;1680617;84;21059;-69
2022/01/23 08:50:47;;;;;;;27.73;15.68;;;;;;;-3.90;100.00;99961.43;1680202;84;21636;-69
2022/01/23 08:53:15;;;;;;;28.40;14.87;;;;;;;-3.89;100.00;99963.10;1679699;84;21024;-71
2022/01/23 08:55:44;;;;;;;29.27;15.43;;;;;;;-3.82;100.00;99971.96;1683846;84;21084;-68
2022/01/23 08:58:16;;;;;;;30.27;16.15;;;;;;;-3.89;100.00;99976.56;1679861;84;21610;-68
2022/01/23 09:00:45;;;;;;;30.00;15.48;;;;;;;-3.82;100.00;99977.34;1664137;85;21082;-68
2022/01/23 09:03:12;;;;;;;29.77;14.60;;;;;;;-3.77;100.00;99971.86;1681296;84;21164;-69
2022/01/23 09:05:43;;;;;;;22.55;13.05;;;;;;;-3.64;100.00;99974.48;1693868;84;21047;-69
2022/01/23 09:08:11;;;;;;;26.65;13.38;;;;;;;-3.48;100.00;99973.15;1695249;84;21111;-67
2022/01/23 09:10:52;;;;;;;23.10;12.47;;;;;;;-3.33;100.00;99980.14;1696788;84;21600;-68
2022/01/23 09:13:41;;;;;;;19.92;10.30;;;;;;;-3.27;100.00;99977.91;1693865;84;21131;-69
2022/01/23 09:15:45;;;;;;;23.00;11.43;;;;;;;-3.13;100.00;99970.58;1688471;84;21244;-70
2022/01/23 09:18:11;;;;;;;21.80;10.75;;;;;;;-2.99;100.00;99971.31;1695508;84;21389;-68
2022/01/23 09:20:39;;;;;;;23.38;12.45;;;;;;;-2.84;100.00;99976.89;1692899;84;22357;-69
2022/01/23 09:23:07;;;;;;;27.58;14.23;;;;;;;-2.77;100.00;99972.28;1698248;84;21036;-68
2022/01/23 09:25:39;;;;;;;21.00;9.95;;;;;;;-2.63;100.00;99978.91;1694502;84;21091;-71
2022/01/23 09:28:13;;;;;;;18.48;10.72;;;;;;;-2.57;100.00;99986.11;1696873;84;21501;-68
2022/01/23 09:30:39;;;;;;;17.95;9.83;;;;;;;-2.55;100.00;99994.83;1695765;84;21059;-67
2022/01/23 09:33:08;;;;;;;18.77;11.08;;;;;;;-2.44;100.00;99998.69;1696857;83;21084;-69
2022/01/23 09:35:34;;;;;;;19.25;11.60;;;;;;;-2.32;100.00;99996.09;1700490;83;21044;-68
2022/01/23 09:38:02;;;;;;;15.50;9.53;;;;;;;-2.21;100.00;99996.69;1676412;84;21105;-69
2022/01/23 09:40:29;;;;;;;16.85;8.65;;;;;;;-2.24;100.00;99997.66;1671992;85;21131;-68
2022/01/23 09:43:08;;;;;;;18.25;9.38;;;;;;;-2.30;100.00;99998.02;1664912;84;21028;-70
2022/01/23 09:45:35;;;;;;;13.32;8.10;;;;;;;-2.24;100.00;100002.55;1687037;84;21035;-69
2022/01/23 09:48:05;;;;;;;17.82;8.70;;;;;;;-2.20;100.00;100000.20;1676790;84;21049;-69
2022/01/23 09:50:38;;;;;;;18.77;7.75;;;;;;;-2.25;100.00;99996.02;1672694;85;21096;-69
2022/01/23 09:53:08;;;;;;;12.68;7.28;;;;;;;-2.20;100.00;100001.03;1694086;84;21032;-67
2022/01/23 09:55:34;;;;;;;15.23;8.38;;;;;;;-2.10;100.00;100009.16;1690387;84;21055;-68
2022/01/23 09:58:02;;;;;;;12.78;7.08;;;;;;;-2.00;100.00;100005.42;1682371;84;21607;-68
2022/01/23 10:00:30;;;;;;;15.65;8.18;;;;;;;-1.92;100.00;100011.04;1683892;84;21039;-69
2022/01/23 10:02:58;;;;;;;17.23;9.45;;;;;;;-1.86;100.00;100007.97;1677125;84;21595;-68
2022/01/23 10:05:25;;;;;;;17.05;9.08;;;;;;;-1.79;100.00;100005.19;1692194;84;22029;-69
2022/01/23 10:07:53;;;;;;;17.73;10.78;;;;;;;-1.85;100.00;100006.91;1706350;83;21089;-68
2022/01/23 10:10:28;;;;;;;17.30;10.38;;;;;;;-1.89;100.00;100009.75;1705122;83;21125;-68
2022/01/23 10:12:58;;;;;;;19.75;10.65;;;;;;;-1.97;100.00;100009.02;1705931;83;21094;-69
2022/01/23 10:15:31;;;;;;;16.85;9.13;;;;;;;-1.88;100.00;100014.12;1652173;84;36238;-69
2022/01/23 10:17:59;;;;;;;17.23;8.85;;;;;;;-1.67;100.00;100014.72;1704203;83;21184;-69
2022/01/23 10:20:26;;;;;;;17.42;9.50;;;;;;;-1.49;100.00;100019.27;1671492;85;21036;-68
2022/01/23 10:22:59;;;;;;;15.20;9.10;;;;;;;-1.38;100.00;100014.98;1682813;84;21055;-67
2022/01/23 10:25:29;;;;;;;17.73;10.48;;;;;;;-1.27;100.00;100020.13;1685559;84;21075;-68
2022/01/23 10:28:07;;;;;;;23.25;10.43;;;;;;;-1.36;100.00;100026.38;1655960;84;20995;-68
2022/01/23 10:30:44;;;;;;;18.05;10.05;;;;;;;-1.43;100.00;100033.22;1678646;84;21089;-67
2022/01/23 10:33:21;;;;;;;18.25;10.93;;;;;;;-1.45;100.00;100039.38;1688315;83;21015;-68
2022/01/23 10:36:13;;;;;;;19.82;9.58;;;;;;;-1.52;100.00;100038.66;1675481;84;21054;-68
2022/01/23 10:38:54;;;;;;;20.37;10.43;;;;;;;-1.71;100.00;100044.07;1679791;84;21078;-67
2022/01/23 10:41:32;;;;;;;13.88;8.93;;;;;;;-1.91;100.00;100057.80;1676556;84;21030;-68
2022/01/23 10:50:07;;;;;;;26.02;11.60;;;;;;;-2.21;100.00;100079.05;1639820;85;20974;-68
2022/01/23 10:52:39;;;;;;;30.68;11.65;;;;;;;-2.20;100.00;100085.27;1690069;84;21035;-67
2022/01/23 10:55:24;;;;;;;26.23;11.40;;;;;;;-2.07;100.00;100082.98;1690098;84;21039;-68
2022/01/23 10:57:58;;;;;;;18.27;8.93;;;;;;;-2.21;100.00;100079.05;1688615;84;21136;-67
2022/01/23 11:00:34;;;;;;;20.62;9.33;;;;;;;-2.09;100.00;100083.72;1680599;84;21074;-68
2022/01/23 11:03:18;;;;;;;16.37;8.35;;;;;;;-2.02;100.00;100080.45;1680234;84;21102;-69
2022/01/23 11:05:48;;;;;;;16.42;8.80;;;;;;;-1.93;100.00;100084.20;1680651;84;21030;-68
2022/01/23 11:08:25;;;;;;;19.52;9.78;;;;;;;-1.77;100.00;100084.97;1680873;83;21059;-69
2022/01/23 11:11:06;;;;;;;14.30;7.70;;;;;;;-1.63;100.00;100083.48;1678345;84;21521;-69
2022/01/23 11:19:35;;;;;;;8.70;5.12;;;;;;;-1.08;98.64;100103.95;1679023;84;21000;-69
2022/01/23 11:22:04;;;;;;;12.70;6.60;;;;;;;-0.99;96.16;100103.40;1674936;84;21730;-69
2022/01/23 11:24:37;;;;;;;11.68;6.55;;;;;;;-0.93;94.65;100110.30;1703647;83;21077;-68
2022/01/23 11:27:08;;;;;;;11.73;6.87;;;;;;;-0.72;94.31;100113.57;1701872;83;21043;-68
2022/01/23 11:29:36;;;;;;;11.83;6.87;;;;;;;-0.73;90.67;100128.98;1706388;83;21057;-68
2022/01/23 11:32:06;;;;;;;9.95;6.40;;;;;;;-0.86;90.42;100129.48;1665001;84;21015;-68
2022/01/23 11:34:33;;;;;;;15.45;7.50;;;;;;;-0.90;89.91;100137.74;1653473;85;21559;-67
2022/01/23 11:37:02;;;;;;;11.85;6.85;;;;;;;-1.08;87.15;100145.36;1686809;84;21148;-69
2022/01/23 11:39:44;;;;;;;17.77;8.73;;;;;;;-1.27;86.74;100154.84;1663530;84;21048;-69
2022/01/23 11:53:52;;;;;;;15.88;8.40;;;;;;;-1.85;84.72;100169.03;1687081;84;21039;-68
2022/01/23 11:56:32;;;;;;;;;;;;;;;-1.94;84.50;100176.58;1692080;84;21079;-68
2022/01/23 11:59:28;;;;;;;17.45;8.53;;;;;;;-2.08;84.40;100179.39;1693881;84;20165;-70
2022/01/23 12:02:14;;;;;;;14.25;8.65;;;;;;;-2.11;84.54;100185.23;1666574;84;21095;-69
2022/01/23 12:05:18;;;;;;;11.78;6.90;;;;;;;-2.12;84.12;100186.30;1690204;84;21047;-68
2022/01/23 12:08:27;;;;;;;8.53;5.58;;;;;;;-2.02;84.14;100185.80;1658586;85;21090;-68
2022/01/23 12:11:48;;;;;;;12.40;7.22;;;;;;;-1.96;82.97;100194.36;1660129;86;21143;-67
2022/01/23 12:17:02;;;;;;;14.20;7.42;;;;;;;-2.20;81.63;100200.88;1733406;82;21009;-68
2022/01/23 12:19:33;;;;;;;9.25;6.62;;;;;;;-2.12;81.71;100213.81;1732508;82;21106;-67
2022/01/23 12:22:26;;;;;;;12.73;7.12;;;;;;;-2.08;81.18;100223.13;1732162;82;21036;-68
2022/01/23 12:24:57;;;;;;;12.25;7.17;;;;;;;-2.07;80.56;100224.80;1732264;82;21068;-68
2022/01/23 12:27:31;;;;;;;14.33;7.53;;;;;;;-2.15;79.32;100234.52;1732219;82;21067;-68
2022/01/23 12:30:26;;;;;;;15.38;8.55;;;;;;;-2.35;78.58;100236.80;1731784;82;20993;-68
2022/01/23 12:33:22;;;;;;;13.20;8.18;;;;;;;-2.43;79.72;100239.75;1731995;82;21517;-68
2022/01/23 12:35:55;;;;;;;15.55;8.50;;;;;;;-2.33;80.23;100240.11;1706056;82;21516;-68
2022/01/23 12:38:33;;;;;;;;;;;;;;;-2.21;79.92;100249.70;1738043;82;21009;-67
2022/01/23 12:41:35;;;;;;;14.73;8.63;;;;;;;-2.22;79.79;100258.86;1736163;82;20174;-69
2022/01/23 12:44:18;;;;;;;19.80;10.10;;;;;;;-2.22;79.50;100262.37;1735633;82;21064;-69
2022/01/23 12:46:53;;;;;;;19.87;10.20;;;;;;;-2.21;79.88;100272.66;1735997;82;21111;-68
2022/01/23 12:49:23;;;;;;;20.35;10.35;;;;;;;-2.20;79.40;100275.66;1735671;82;20917;-68
2022/01/23 12:52:15;;;;;;;21.45;10.95;;;;;;;-2.28;79.11;100271.86;1735992;82;20985;-69
2022/01/23 12:54:53;;;;;;;21.85;10.25;;;;;;;-2.40;79.27;100278.45;1714157;82;21072;-67
2022/01/23 12:57:33;;;;;;;19.20;10.18;;;;;;;-2.38;79.76;100281.78;1711067;82;21055;-68
2022/01/23 13:00:01;;;;;;;20.97;9.95;;;;;;;-2.45;78.96;100285.34;1735659;82;21051;-68
2022/01/23 13:02:34;;;;;;;20.82;10.53;;;;;;;-2.54;78.62;100282.56;1736756;82;21044;-68
2022/01/23 13:04:58;;;;;;;23.80;11.35;;;;;;;-2.66;78.35;100287.80;1732907;82;21040;-68
2022/01/23 13:07:41;;;;;;;18.07;9.93;;;;;;;-2.76;78.87;100295.54;1732965;82;21084;-67
2022/01/23 13:12:55;;;;;;;21.15;11.97;;;;;;;-2.73;79.12;100301.86;1678732;82;21552;-69
2022/01/23 13:32:12;;;;;;;25.02;11.78;;;;;;;-3.27;79.32;100347.77;1735961;82;21563;-68
2022/01/23 13:34:40;;;;;;;22.32;11.48;;;;;;;-3.24;79.46;100352.77;1661937;85;21858;-66
2022/01/23 13:37:14;;;;;;;20.97;10.15;;;;;;;-3.20;79.52;100354.84;1682892;84;21012;-67
2022/01/23 13:39:59;;;;;;;20.62;9.83;;;;;;;-3.20;79.51;100360.73;1657266;85;21550;-68
2022/01/23 13:47:53;;;;;;;18.20;9.65;;;;;;;-3.24;79.20;100360.86;1659752;85;21031;-68
2022/01/23 13:59:54;;;;;;;25.82;11.78;;;;;;;-3.69;79.84;100398.63;1667615;85;21088;-67
2022/01/23 14:02:25;;;;;;;26.25;12.55;;;;;;;-3.77;79.99;100403.67;1668954;85;21008;-69
2022/01/23 14:05:11;;;;;;;23.75;12.35;;;;;;;-3.82;80.11;100410.22;1669905;85;21132;-69
2022/01/23 14:07:43;;;;;;;21.48;10.05;;;;;;;-3.83;80.39;100417.45;1699037;83;21817;-68
2022/01/23 14:10:25;;;;;;;17.70;9.18;;;;;;;-3.80;80.67;100421.59;1671797;85;21064;-67
2022/01/23 14:12:54;;;;;;;25.45;11.12;;;;;;;-3.80;80.61;100426.48;1668275;85;21083;-66
2022/01/23 14:15:26;;;;;;;15.32;9.58;;;;;;;-3.86;84.72;100422.41;1679929;84;21503;-68
2022/01/23 14:18:10;;;;;;;21.57;9.85;;;;;;;-3.84;84.68;100427.09;1680904;84;21662;-67
2022/01/23 14:20:42;;;;;;;18.70;10.13;;;;;;;-3.91;83.89;100423.84;1681938;84;21122;-68
2022/01/23 14:23:20;;;;;;;16.85;8.30;;;;;;;-4.04;82.61;100432.70;1653716;84;21116;-68
2022/01/23 14:26:04;;;;;;;18.80;10.78;;;;;;;-4.05;82.70;100436.95;1679391;84;21071;-69
2022/01/23 14:28:50;;;;;;;16.67;8.93;;;;;;;-4.01;82.18;100429.30;1680076;84;21528;-70
2022/01/23 14:31:21;;;;;;;21.40;10.08;;;;;;;-3.97;81.76;100431.38;1681804;84;21056;-69
2022/01/23 14:33:56;;;;;;;18.30;9.70;;;;;;;-4.09;82.55;100428.43;1682732;83;21103;-69
2022/01/23 14:36:25;;;;;;;16.93;9.60;;;;;;;-4.14;82.58;100432.23;1682870;84;21671;-68
2022/01/23 14:38:59;;;;;;;23.60;11.95;;;;;;;-4.15;82.30;100426.55;1666280;85;21027;-69
2022/01/23 14:41:33;;;;;;;17.95;10.40;;;;;;;-4.19;82.31;100436.88;1682656;84;21500;-68
2022/01/23 14:44:05;;;;;;;23.70;10.58;;;;;;;-4.18;82.81;100439.88;1682334;84;21544;-68
2022/01/23 14:46:32;;;;;;;17.52;10.55;;;;;;;-4.15;82.89;100453.47;1680309;84;21140;-69